sensor_id;sensor_type;location;lat;lon;timestamp;P1;durP1;ratioP1;P2;durP2;ratioP2
28904;SDS011;60848;53.884;11.446;2022-11-18T00:01:29;16.67;;;10.77;;
28904;SDS011;60848;53.884;11.446;2022-11-18T00:03:58;18.10;;;12.18;;
28904;SDS011;60848;53.884;11.446;2022-11-18T00:06:27;17.88;;;11.48;;
28904;SDS011;60848;53.884;11.446;2022-11-18T00:08:57;16.35;;;12.25;;
28904;SDS011;60848;53.884;11.446;2022-11-18T00:11:29;16.42;;;10.50;;
28904;SDS011;60848;53.884;11.446;2022-11-18T00:14:17;17.98;;;12.85;;
28904;SDS011;60848;53.884;11.446;2022-11-18T00:16:50;16.75;;;12.10;;
28904;SDS011;60848;53.884;11.446;2022-11-18T00:19:20;17.23;;;12.43;;
28904;SDS011;60848;53.884;11.446;2022-11-18T00:21:50;17.60;;;13.05;;
28904;SDS011;60848;53.884;11.446;2022-11-18T00:24:19;17.85;;;12.85;;
28904;SDS011;60848;53.884;11.446;2022-11-18T00:26:48;16.77;;;12.63;;
28904;SDS011;60848;53.884;11.446;2022-11-18T00:29:21;20.10;;;13.00;;
28904;SDS011;60848;53.884;11.446;2022-11-18T00:31:51;16.23;;;11.75;;
28904;SDS011;60848;53.884;11.446;2022-11-18T00:34:19;18.85;;;13.43;;
28904;SDS011;60848;53.884;11.446;2022-11-18T00:36:49;19.58;;;12.95;;
28904;SDS011;60848;53.884;11.446;2022-11-18T00:39:18;18.83;;;12.63;;
28904;SDS011;60848;53.884;11.446;2022-11-18T00:41:47;16.80;;;12.38;;
28904;SDS011;60848;53.884;11.446;2022-11-18T00:44:35;17.50;;;12.13;;
28904;SDS011;60848;53.884;11.446;2022-11-18T00:47:03;18.58;;;12.77;;
28904;SDS011;60848;53.884;11.446;2022-11-18T00:49:32;18.48;;;13.00;;
28904;SDS011;60848;53.884;11.446;2022-11-18T00:52:00;18.35;;;12.75;;
28904;SDS011;60848;53.884;11.446;2022-11-18T00:54:28;16.13;;;11.55;;
28904;SDS011;60848;53.884;11.446;2022-11-18T00:56:57;17.58;;;11.85;;
28904;SDS011;60848;53.884;11.446;2022-11-18T00:59:27;18.20;;;13.13;;
28904;SDS011;60848;53.884;11.446;2022-11-18T01:01:57;17.23;;;11.45;;
28904;SDS011;60848;53.884;11.446;2022-11-18T01:04:26;15.27;;;10.85;;
28904;SDS011;60848;53.884;11.446;2022-11-18T01:06:54;18.88;;;12.20;;
28904;SDS011;60848;53.884;11.446;2022-11-18T01:09:22;18.75;;;11.70;;
28904;SDS011;60848;53.884;11.446;2022-11-18T01:11:51;17.13;;;11.20;;
28904;SDS011;60848;53.884;11.446;2022-11-18T01:14:38;17.27;;;11.82;;
28904;SDS011;60848;53.884;11.446;2022-11-18T01:17:09;16.20;;;11.80;;
28904;SDS011;60848;53.884;11.446;2022-11-18T01:19:38;18.08;;;11.18;;
28904;SDS011;60848;53.884;11.446;2022-11-18T01:22:08;15.75;;;11.70;;
28904;SDS011;60848;53.884;11.446;2022-11-18T01:24:37;16.13;;;11.77;;
28904;SDS011;60848;53.884;11.446;2022-11-18T01:27:05;16.73;;;12.07;;
28904;SDS011;60848;53.884;11.446;2022-11-18T01:29:33;16.92;;;11.10;;
28904;SDS011;60848;53.884;11.446;2022-11-18T01:32:03;17.25;;;11.50;;
28904;SDS011;60848;53.884;11.446;2022-11-18T01:34:51;18.15;;;12.23;;
28904;SDS011;60848;53.884;11.446;2022-11-18T01:37:20;17.35;;;11.80;;
28904;SDS011;60848;53.884;11.446;2022-11-18T01:39:48;19.23;;;12.45;;
28904;SDS011;60848;53.884;11.446;2022-11-18T01:42:17;18.73;;;11.85;;
28904;SDS011;60848;53.884;11.446;2022-11-18T01:44:52;19.17;;;12.07;;
28904;SDS011;60848;53.884;11.446;2022-11-18T01:47:27;23.05;;;14.27;;
28904;SDS011;60848;53.884;11.446;2022-11-18T01:50:00;20.90;;;12.95;;
28904;SDS011;60848;53.884;11.446;2022-11-18T01:52:30;23.63;;;14.05;;
28904;SDS011;60848;53.884;11.446;2022-11-18T01:55:00;24.75;;;12.57;;
28904;SDS011;60848;53.884;11.446;2022-11-18T01:57:34;22.17;;;14.15;;
28904;SDS011;60848;53.884;11.446;2022-11-18T02:00:03;22.67;;;14.60;;
28904;SDS011;60848;53.884;11.446;2022-11-18T02:02:33;26.00;;;15.38;;
28904;SDS011;60848;53.884;11.446;2022-11-18T02:05:07;24.80;;;14.50;;
28904;SDS011;60848;53.884;11.446;2022-11-18T02:07:40;27.42;;;14.57;;
28904;SDS011;60848;53.884;11.446;2022-11-18T02:10:15;27.58;;;15.25;;
28904;SDS011;60848;53.884;11.446;2022-11-18T02:12:46;24.58;;;13.93;;
28904;SDS011;60848;53.884;11.446;2022-11-18T02:15:18;24.50;;;13.70;;
28904;SDS011;60848;53.884;11.446;2022-11-18T02:17:56;24.67;;;14.85;;
28904;SDS011;60848;53.884;11.446;2022-11-18T02:20:34;23.60;;;14.20;;
28904;SDS011;60848;53.884;11.446;2022-11-18T02:26:23;31.63;;;15.88;;
28904;SDS011;60848;53.884;11.446;2022-11-18T02:29:14;31.50;;;16.90;;
28904;SDS011;60848;53.884;11.446;2022-11-18T02:31:48;32.13;;;16.25;;
28904;SDS011;60848;53.884;11.446;2022-11-18T02:34:24;32.45;;;16.75;;
28904;SDS011;60848;53.884;11.446;2022-11-18T02:37:01;36.22;;;17.48;;
28904;SDS011;60848;53.884;11.446;2022-11-18T02:39:35;35.92;;;18.90;;
28904;SDS011;60848;53.884;11.446;2022-11-18T02:42:10;39.72;;;19.42;;
28904;SDS011;60848;53.884;11.446;2022-11-18T02:44:44;38.90;;;19.15;;
28904;SDS011;60848;53.884;11.446;2022-11-18T02:47:20;35.88;;;18.52;;
28904;SDS011;60848;53.884;11.446;2022-11-18T02:49:54;40.20;;;20.80;;
28904;SDS011;60848;53.884;11.446;2022-11-18T02:52:26;43.92;;;20.60;;
28904;SDS011;60848;53.884;11.446;2022-11-18T02:54:58;40.03;;;21.27;;
28904;SDS011;60848;53.884;11.446;2022-11-18T02:57:28;42.00;;;21.17;;
28904;SDS011;60848;53.884;11.446;2022-11-18T02:59:59;43.75;;;21.10;;
28904;SDS011;60848;53.884;11.446;2022-11-18T03:02:27;42.10;;;20.95;;
28904;SDS011;60848;53.884;11.446;2022-11-18T03:05:06;37.80;;;19.90;;
28904;SDS011;60848;53.884;11.446;2022-11-18T03:07:40;41.75;;;21.00;;
28904;SDS011;60848;53.884;11.446;2022-11-18T03:10:13;43.67;;;20.73;;
28904;SDS011;60848;53.884;11.446;2022-11-18T03:17:53;44.40;;;20.77;;
28904;SDS011;60848;53.884;11.446;2022-11-18T03:20:33;37.75;;;18.88;;
28904;SDS011;60848;53.884;11.446;2022-11-18T03:23:06;43.75;;;20.80;;
28904;SDS011;60848;53.884;11.446;2022-11-18T03:25:41;42.70;;;20.55;;
28904;SDS011;60848;53.884;11.446;2022-11-18T03:28:14;43.90;;;20.38;;
28904;SDS011;60848;53.884;11.446;2022-11-18T03:30:49;42.85;;;21.17;;
28904;SDS011;60848;53.884;11.446;2022-11-18T03:33:23;42.33;;;19.77;;
28904;SDS011;60848;53.884;11.446;2022-11-18T03:36:01;35.25;;;19.10;;
28904;SDS011;60848;53.884;11.446;2022-11-18T03:38:33;38.42;;;18.73;;
28904;SDS011;60848;53.884;11.446;2022-11-18T03:41:05;42.17;;;20.55;;
28904;SDS011;60848;53.884;11.446;2022-11-18T03:43:37;41.25;;;21.00;;
28904;SDS011;60848;53.884;11.446;2022-11-18T03:46:14;43.95;;;20.25;;
28904;SDS011;60848;53.884;11.446;2022-11-18T03:48:46;43.92;;;20.45;;
28904;SDS011;60848;53.884;11.446;2022-11-18T03:51:21;49.03;;;22.33;;
28904;SDS011;60848;53.884;11.446;2022-11-18T03:53:59;43.17;;;20.92;;
28904;SDS011;60848;53.884;11.446;2022-11-18T03:56:34;48.08;;;21.98;;
28904;SDS011;60848;53.884;11.446;2022-11-18T03:59:07;41.92;;;21.23;;
28904;SDS011;60848;53.884;11.446;2022-11-18T04:01:41;45.22;;;20.83;;
28904;SDS011;60848;53.884;11.446;2022-11-18T04:04:16;49.30;;;21.40;;
28904;SDS011;60848;53.884;11.446;2022-11-18T04:06:45;40.03;;;19.63;;
28904;SDS011;60848;53.884;11.446;2022-11-18T04:09:17;43.08;;;19.90;;
28904;SDS011;60848;53.884;11.446;2022-11-18T04:11:50;41.13;;;18.33;;
28904;SDS011;60848;53.884;11.446;2022-11-18T04:14:30;37.35;;;19.92;;
28904;SDS011;60848;53.884;11.446;2022-11-18T04:17:03;40.35;;;19.27;;
28904;SDS011;60848;53.884;11.446;2022-11-18T04:19:34;40.97;;;19.33;;
28904;SDS011;60848;53.884;11.446;2022-11-18T04:22:03;38.17;;;18.83;;
28904;SDS011;60848;53.884;11.446;2022-11-18T04:24:32;36.58;;;18.35;;
28904;SDS011;60848;53.884;11.446;2022-11-18T04:27:00;36.67;;;18.60;;
28904;SDS011;60848;53.884;11.446;2022-11-18T04:29:29;32.70;;;18.88;;
28904;SDS011;60848;53.884;11.446;2022-11-18T04:31:58;34.63;;;17.23;;
28904;SDS011;60848;53.884;11.446;2022-11-18T04:34:28;37.30;;;17.23;;
28904;SDS011;60848;53.884;11.446;2022-11-18T04:36:57;32.30;;;16.33;;
28904;SDS011;60848;53.884;11.446;2022-11-18T04:39:25;31.55;;;16.92;;
28904;SDS011;60848;53.884;11.446;2022-11-18T04:41:56;32.05;;;17.13;;
28904;SDS011;60848;53.884;11.446;2022-11-18T04:44:27;31.20;;;15.97;;
28904;SDS011;60848;53.884;11.446;2022-11-18T04:46:59;28.40;;;15.23;;
28904;SDS011;60848;53.884;11.446;2022-11-18T04:49:30;26.45;;;13.90;;
28904;SDS011;60848;53.884;11.446;2022-11-18T04:51:59;30.83;;;16.43;;
28904;SDS011;60848;53.884;11.446;2022-11-18T04:54:29;29.30;;;16.13;;
28904;SDS011;60848;53.884;11.446;2022-11-18T04:56:57;29.98;;;16.05;;
28904;SDS011;60848;53.884;11.446;2022-11-18T04:59:26;29.13;;;14.88;;
28904;SDS011;60848;53.884;11.446;2022-11-18T05:01:56;28.42;;;14.60;;
28904;SDS011;60848;53.884;11.446;2022-11-18T05:04:31;31.50;;;15.35;;
28904;SDS011;60848;53.884;11.446;2022-11-18T05:09:33;30.42;;;14.90;;
28904;SDS011;60848;53.884;11.446;2022-11-18T05:12:03;33.60;;;17.10;;
28904;SDS011;60848;53.884;11.446;2022-11-18T05:14:49;35.28;;;16.55;;
28904;SDS011;60848;53.884;11.446;2022-11-18T05:17:18;35.58;;;18.38;;
28904;SDS011;60848;53.884;11.446;2022-11-18T05:19:50;35.03;;;16.70;;
28904;SDS011;60848;53.884;11.446;2022-11-18T05:22:18;37.17;;;18.80;;
28904;SDS011;60848;53.884;11.446;2022-11-18T05:24:47;39.40;;;19.00;;
28904;SDS011;60848;53.884;11.446;2022-11-18T05:27:15;43.55;;;19.85;;
28904;SDS011;60848;53.884;11.446;2022-11-18T05:29:44;47.03;;;19.90;;
28904;SDS011;60848;53.884;11.446;2022-11-18T05:32:12;54.72;;;23.27;;
28904;SDS011;60848;53.884;11.446;2022-11-18T05:34:40;48.33;;;22.50;;
28904;SDS011;60848;53.884;11.446;2022-11-18T05:37:13;63.17;;;32.03;;
28904;SDS011;60848;53.884;11.446;2022-11-18T05:39:43;65.18;;;33.70;;
28904;SDS011;60848;53.884;11.446;2022-11-18T05:42:14;66.30;;;33.88;;
28904;SDS011;60848;53.884;11.446;2022-11-18T05:45:00;51.88;;;26.23;;
28904;SDS011;60848;53.884;11.446;2022-11-18T05:47:28;47.35;;;22.52;;
28904;SDS011;60848;53.884;11.446;2022-11-18T05:50:18;52.30;;;24.38;;
28904;SDS011;60848;53.884;11.446;2022-11-18T05:52:48;47.08;;;22.58;;
28904;SDS011;60848;53.884;11.446;2022-11-18T05:55:19;42.22;;;19.67;;
28904;SDS011;60848;53.884;11.446;2022-11-18T05:57:48;46.42;;;21.58;;
28904;SDS011;60848;53.884;11.446;2022-11-18T06:00:19;45.47;;;20.65;;
28904;SDS011;60848;53.884;11.446;2022-11-18T06:02:47;37.85;;;18.30;;
28904;SDS011;60848;53.884;11.446;2022-11-18T06:05:18;38.55;;;19.27;;
28904;SDS011;60848;53.884;11.446;2022-11-18T06:07:49;33.25;;;15.70;;
28904;SDS011;60848;53.884;11.446;2022-11-18T06:10:20;33.28;;;14.95;;
28904;SDS011;60848;53.884;11.446;2022-11-18T06:12:53;34.40;;;16.80;;
28904;SDS011;60848;53.884;11.446;2022-11-18T06:15:26;33.20;;;16.10;;
28904;SDS011;60848;53.884;11.446;2022-11-18T06:18:02;29.40;;;16.80;;
28904;SDS011;60848;53.884;11.446;2022-11-18T06:20:37;33.17;;;15.43;;
28904;SDS011;60848;53.884;11.446;2022-11-18T06:23:08;28.10;;;15.68;;
28904;SDS011;60848;53.884;11.446;2022-11-18T06:25:37;30.65;;;15.40;;
28904;SDS011;60848;53.884;11.446;2022-11-18T06:28:07;27.95;;;15.13;;
28904;SDS011;60848;53.884;11.446;2022-11-18T06:33:06;26.40;;;14.10;;
28904;SDS011;60848;53.884;11.446;2022-11-18T06:35:35;32.85;;;16.20;;
28904;SDS011;60848;53.884;11.446;2022-11-18T06:38:05;25.95;;;13.38;;
28904;SDS011;60848;53.884;11.446;2022-11-18T06:40:35;27.83;;;13.90;;
28904;SDS011;60848;53.884;11.446;2022-11-18T06:43:04;30.67;;;15.27;;
28904;SDS011;60848;53.884;11.446;2022-11-18T06:45:50;27.75;;;14.15;;
28904;SDS011;60848;53.884;11.446;2022-11-18T06:48:34;23.38;;;13.75;;
28904;SDS011;60848;53.884;11.446;2022-11-18T06:51:06;23.95;;;12.38;;
28904;SDS011;60848;53.884;11.446;2022-11-18T06:53:34;25.42;;;13.52;;
28904;SDS011;60848;53.884;11.446;2022-11-18T06:56:04;25.98;;;14.82;;
28904;SDS011;60848;53.884;11.446;2022-11-18T06:58:33;25.13;;;12.50;;
28904;SDS011;60848;53.884;11.446;2022-11-18T07:01:07;22.35;;;13.50;;
28904;SDS011;60848;53.884;11.446;2022-11-18T07:03:37;22.40;;;12.05;;
28904;SDS011;60848;53.884;11.446;2022-11-18T07:06:05;24.73;;;13.00;;
28904;SDS011;60848;53.884;11.446;2022-11-18T07:08:35;22.92;;;13.48;;
28904;SDS011;60848;53.884;11.446;2022-11-18T07:11:06;22.88;;;13.27;;
28904;SDS011;60848;53.884;11.446;2022-11-18T07:13:36;24.25;;;13.73;;
28904;SDS011;60848;53.884;11.446;2022-11-18T07:18:39;18.13;;;11.88;;
28904;SDS011;60848;53.884;11.446;2022-11-18T07:21:09;19.25;;;11.70;;
28904;SDS011;60848;53.884;11.446;2022-11-18T07:23:39;22.60;;;12.27;;
28904;SDS011;60848;53.884;11.446;2022-11-18T07:28:37;18.05;;;10.88;;
28904;SDS011;60848;53.884;11.446;2022-11-18T07:38:32;17.55;;;9.88;;
28904;SDS011;60848;53.884;11.446;2022-11-18T07:43:34;16.70;;;10.20;;
28904;SDS011;60848;53.884;11.446;2022-11-18T07:46:10;18.87;;;11.30;;
28904;SDS011;60848;53.884;11.446;2022-11-18T07:48:40;19.55;;;11.43;;
28904;SDS011;60848;53.884;11.446;2022-11-18T07:51:09;16.73;;;11.02;;
28904;SDS011;60848;53.884;11.446;2022-11-18T07:53:37;18.83;;;10.68;;
28904;SDS011;60848;53.884;11.446;2022-11-18T07:56:06;15.15;;;10.27;;
28904;SDS011;60848;53.884;11.446;2022-11-18T07:58:37;18.45;;;10.05;;
28904;SDS011;60848;53.884;11.446;2022-11-18T08:01:06;15.82;;;10.13;;
28904;SDS011;60848;53.884;11.446;2022-11-18T08:03:35;19.27;;;10.48;;
28904;SDS011;60848;53.884;11.446;2022-11-18T08:06:04;15.63;;;9.98;;
28904;SDS011;60848;53.884;11.446;2022-11-18T08:08:34;16.85;;;9.80;;
28904;SDS011;60848;53.884;11.446;2022-11-18T08:13:35;11.75;;;7.85;;
28904;SDS011;60848;53.884;11.446;2022-11-18T08:16:10;14.80;;;10.80;;
28904;SDS011;60848;53.884;11.446;2022-11-18T08:18:40;12.88;;;8.88;;
28904;SDS011;60848;53.884;11.446;2022-11-18T08:21:08;12.20;;;8.13;;
28904;SDS011;60848;53.884;11.446;2022-11-18T08:23:37;11.00;;;7.32;;
28904;SDS011;60848;53.884;11.446;2022-11-18T08:26:08;11.43;;;7.67;;
28904;SDS011;60848;53.884;11.446;2022-11-18T08:28:41;11.60;;;7.72;;
28904;SDS011;60848;53.884;11.446;2022-11-18T08:31:14;14.05;;;7.70;;
28904;SDS011;60848;53.884;11.446;2022-11-18T08:36:17;12.85;;;8.10;;
28904;SDS011;60848;53.884;11.446;2022-11-18T08:38:48;12.82;;;7.97;;
28904;SDS011;60848;53.884;11.446;2022-11-18T08:41:17;14.95;;;8.52;;
28904;SDS011;60848;53.884;11.446;2022-11-18T08:43:49;12.45;;;8.00;;
28904;SDS011;60848;53.884;11.446;2022-11-18T08:46:19;12.90;;;8.52;;
28904;SDS011;60848;53.884;11.446;2022-11-18T08:48:48;13.98;;;8.82;;
28904;SDS011;60848;53.884;11.446;2022-11-18T08:51:16;14.30;;;8.50;;
28904;SDS011;60848;53.884;11.446;2022-11-18T08:53:45;12.98;;;8.27;;
28904;SDS011;60848;53.884;11.446;2022-11-18T08:56:16;11.35;;;8.18;;
28904;SDS011;60848;53.884;11.446;2022-11-18T08:58:46;13.80;;;8.23;;
28904;SDS011;60848;53.884;11.446;2022-11-18T09:01:16;12.30;;;7.72;;
28904;SDS011;60848;53.884;11.446;2022-11-18T09:03:47;11.93;;;7.60;;
28904;SDS011;60848;53.884;11.446;2022-11-18T09:06:16;12.25;;;6.97;;
28904;SDS011;60848;53.884;11.446;2022-11-18T09:08:46;8.23;;;5.78;;
28904;SDS011;60848;53.884;11.446;2022-11-18T09:11:15;9.77;;;6.40;;
28904;SDS011;60848;53.884;11.446;2022-11-18T09:13:45;10.32;;;6.70;;
28904;SDS011;60848;53.884;11.446;2022-11-18T09:16:35;9.70;;;5.90;;
28904;SDS011;60848;53.884;11.446;2022-11-18T09:19:05;8.10;;;5.45;;
28904;SDS011;60848;53.884;11.446;2022-11-18T09:34:23;8.05;;;4.45;;
28904;SDS011;60848;53.884;11.446;2022-11-18T09:36:51;7.70;;;5.22;;
28904;SDS011;60848;53.884;11.446;2022-11-18T09:39:22;6.70;;;4.57;;
28904;SDS011;60848;53.884;11.446;2022-11-18T09:41:54;7.43;;;4.75;;
28904;SDS011;60848;53.884;11.446;2022-11-18T09:44:32;7.53;;;4.93;;
28904;SDS011;60848;53.884;11.446;2022-11-18T09:47:18;7.10;;;4.40;;
28904;SDS011;60848;53.884;11.446;2022-11-18T09:49:54;12.63;;;6.28;;
28904;SDS011;60848;53.884;11.446;2022-11-18T09:52:25;6.35;;;4.20;;
28904;SDS011;60848;53.884;11.446;2022-11-18T09:57:34;7.72;;;4.57;;
28904;SDS011;60848;53.884;11.446;2022-11-18T10:00:08;6.95;;;3.83;;
28904;SDS011;60848;53.884;11.446;2022-11-18T10:02:55;7.15;;;4.10;;
28904;SDS011;60848;53.884;11.446;2022-11-18T10:05:28;6.15;;;3.38;;
28904;SDS011;60848;53.884;11.446;2022-11-18T10:08:02;5.50;;;3.80;;
28904;SDS011;60848;53.884;11.446;2022-11-18T10:10:40;4.90;;;3.38;;
28904;SDS011;60848;53.884;11.446;2022-11-18T10:13:19;5.57;;;3.42;;
28904;SDS011;60848;53.884;11.446;2022-11-18T10:15:56;4.65;;;2.90;;
28904;SDS011;60848;53.884;11.446;2022-11-18T10:18:35;4.70;;;3.08;;
28904;SDS011;60848;53.884;11.446;2022-11-18T10:21:30;3.85;;;2.42;;
28904;SDS011;60848;53.884;11.446;2022-11-18T10:24:09;4.68;;;2.55;;
28904;SDS011;60848;53.884;11.446;2022-11-18T10:26:45;3.60;;;2.28;;
28904;SDS011;60848;53.884;11.446;2022-11-18T10:29:16;3.45;;;1.95;;
28904;SDS011;60848;53.884;11.446;2022-11-18T10:31:51;8.27;;;2.13;;
28904;SDS011;60848;53.884;11.446;2022-11-18T10:34:29;3.75;;;2.17;;
28904;SDS011;60848;53.884;11.446;2022-11-18T10:36:59;6.50;;;3.40;;
28904;SDS011;60848;53.884;11.446;2022-11-18T10:39:29;14.05;;;6.70;;
28904;SDS011;60848;53.884;11.446;2022-11-18T10:42:00;4.90;;;2.22;;
28904;SDS011;60848;53.884;11.446;2022-11-18T11:51:26;11.18;;;5.70;;
28904;SDS011;60848;53.884;11.446;2022-11-18T11:57:04;4.38;;;2.00;;
28904;SDS011;60848;53.884;11.446;2022-11-18T11:59:45;4.47;;;1.98;;
28904;SDS011;60848;53.884;11.446;2022-11-18T12:02:27;3.17;;;1.60;;
28904;SDS011;60848;53.884;11.446;2022-11-18T12:05:16;3.22;;;1.50;;
28904;SDS011;60848;53.884;11.446;2022-11-18T12:07:50;3.55;;;1.90;;
28904;SDS011;60848;53.884;11.446;2022-11-18T12:10:29;3.78;;;1.90;;
28904;SDS011;60848;53.884;11.446;2022-11-18T12:13:11;3.10;;;1.45;;
28904;SDS011;60848;53.884;11.446;2022-11-18T12:15:51;2.13;;;1.25;;
28904;SDS011;60848;53.884;11.446;2022-11-18T12:18:30;2.90;;;1.50;;
28904;SDS011;60848;53.884;11.446;2022-11-18T12:21:04;2.33;;;1.40;;
28904;SDS011;60848;53.884;11.446;2022-11-18T12:23:34;5.00;;;1.33;;
28904;SDS011;60848;53.884;11.446;2022-11-18T12:26:03;2.28;;;1.38;;
28904;SDS011;60848;53.884;11.446;2022-11-18T12:28:36;3.00;;;1.40;;
28904;SDS011;60848;53.884;11.446;2022-11-18T12:34:03;3.83;;;1.42;;
28904;SDS011;60848;53.884;11.446;2022-11-18T12:36:47;2.70;;;1.50;;
28904;SDS011;60848;53.884;11.446;2022-11-18T12:42:38;3.50;;;1.52;;
28904;SDS011;60848;53.884;11.446;2022-11-18T12:48:31;2.88;;;1.40;;
28904;SDS011;60848;53.884;11.446;2022-11-18T12:54:24;2.75;;;1.40;;
28904;SDS011;60848;53.884;11.446;2022-11-18T12:57:11;3.70;;;1.13;;
28904;SDS011;60848;53.884;11.446;2022-11-18T12:59:46;1.92;;;1.20;;
28904;SDS011;60848;53.884;11.446;2022-11-18T13:02:19;4.15;;;1.10;;
28904;SDS011;60848;53.884;11.446;2022-11-18T13:05:04;2.35;;;1.27;;
28904;SDS011;60848;53.884;11.446;2022-11-18T13:07:38;2.80;;;1.33;;
28904;SDS011;60848;53.884;11.446;2022-11-18T13:10:31;3.78;;;1.52;;
28904;SDS011;60848;53.884;11.446;2022-11-18T13:13:01;3.08;;;1.30;;
28904;SDS011;60848;53.884;11.446;2022-11-18T13:15:31;2.97;;;1.35;;
28904;SDS011;60848;53.884;11.446;2022-11-18T13:18:17;2.30;;;1.20;;
28904;SDS011;60848;53.884;11.446;2022-11-18T13:20:53;3.50;;;1.38;;
28904;SDS011;60848;53.884;11.446;2022-11-18T13:23:24;2.75;;;1.52;;
28904;SDS011;60848;53.884;11.446;2022-11-18T13:26:14;3.25;;;1.40;;
28904;SDS011;60848;53.884;11.446;2022-11-18T13:29:00;2.35;;;1.20;;
28904;SDS011;60848;53.884;11.446;2022-11-18T13:31:44;2.83;;;1.55;;
28904;SDS011;60848;53.884;11.446;2022-11-18T13:34:20;4.22;;;1.30;;
28904;SDS011;60848;53.884;11.446;2022-11-18T13:36:51;2.90;;;1.40;;
28904;SDS011;60848;53.884;11.446;2022-11-18T13:39:23;2.28;;;1.40;;
28904;SDS011;60848;53.884;11.446;2022-11-18T13:41:57;4.25;;;1.27;;
28904;SDS011;60848;53.884;11.446;2022-11-18T13:44:30;2.45;;;1.35;;
28904;SDS011;60848;53.884;11.446;2022-11-18T13:47:04;4.07;;;1.60;;
28904;SDS011;60848;53.884;11.446;2022-11-18T13:49:38;2.80;;;1.38;;
28904;SDS011;60848;53.884;11.446;2022-11-18T13:52:18;2.70;;;1.50;;
28904;SDS011;60848;53.884;11.446;2022-11-18T13:54:50;1.45;;;1.02;;
28904;SDS011;60848;53.884;11.446;2022-11-18T13:57:21;3.28;;;1.30;;
28904;SDS011;60848;53.884;11.446;2022-11-18T13:59:51;2.28;;;1.30;;
28904;SDS011;60848;53.884;11.446;2022-11-18T14:02:25;2.28;;;1.40;;
28904;SDS011;60848;53.884;11.446;2022-11-18T14:04:54;2.08;;;1.13;;
28904;SDS011;60848;53.884;11.446;2022-11-18T14:07:26;3.80;;;1.58;;
28904;SDS011;60848;53.884;11.446;2022-11-18T14:09:57;2.70;;;1.33;;
28904;SDS011;60848;53.884;11.446;2022-11-18T14:12:31;4.43;;;1.30;;
28904;SDS011;60848;53.884;11.446;2022-11-18T14:15:11;2.33;;;1.10;;
28904;SDS011;60848;53.884;11.446;2022-11-18T14:20:20;3.38;;;1.20;;
28904;SDS011;60848;53.884;11.446;2022-11-18T14:22:53;2.70;;;1.23;;
28904;SDS011;60848;53.884;11.446;2022-11-18T14:25:23;2.13;;;1.20;;
28904;SDS011;60848;53.884;11.446;2022-11-18T14:27:55;2.60;;;1.27;;
28904;SDS011;60848;53.884;11.446;2022-11-18T14:30:28;2.38;;;1.25;;
28904;SDS011;60848;53.884;11.446;2022-11-18T14:33:06;1.88;;;1.08;;
28904;SDS011;60848;53.884;11.446;2022-11-18T14:35:41;2.20;;;1.42;;
28904;SDS011;60848;53.884;11.446;2022-11-18T14:38:14;3.05;;;1.30;;
28904;SDS011;60848;53.884;11.446;2022-11-18T14:41:05;11.80;;;5.28;;
28904;SDS011;60848;53.884;11.446;2022-11-18T14:43:35;5.25;;;1.88;;
28904;SDS011;60848;53.884;11.446;2022-11-18T14:46:04;5.70;;;2.92;;
28904;SDS011;60848;53.884;11.446;2022-11-18T14:48:40;2.90;;;1.45;;
28904;SDS011;60848;53.884;11.446;2022-11-18T14:51:10;2.50;;;1.20;;
28904;SDS011;60848;53.884;11.446;2022-11-18T14:53:40;2.72;;;1.40;;
28904;SDS011;60848;53.884;11.446;2022-11-18T14:56:11;1.98;;;1.10;;
28904;SDS011;60848;53.884;11.446;2022-11-18T14:58:44;3.67;;;2.10;;
28904;SDS011;60848;53.884;11.446;2022-11-18T15:01:12;4.22;;;2.03;;
28904;SDS011;60848;53.884;11.446;2022-11-18T15:03:42;1.67;;;1.00;;
28904;SDS011;60848;53.884;11.446;2022-11-18T15:06:13;2.47;;;1.30;;
28904;SDS011;60848;53.884;11.446;2022-11-18T15:08:43;2.38;;;1.30;;
28904;SDS011;60848;53.884;11.446;2022-11-18T15:11:13;2.30;;;1.38;;
28904;SDS011;60848;53.884;11.446;2022-11-18T15:13:42;2.80;;;1.30;;
28904;SDS011;60848;53.884;11.446;2022-11-18T15:16:11;3.05;;;1.30;;
28904;SDS011;60848;53.884;11.446;2022-11-18T15:18:43;2.63;;;1.40;;
28904;SDS011;60848;53.884;11.446;2022-11-18T15:21:14;2.75;;;1.40;;
28904;SDS011;60848;53.884;11.446;2022-11-18T15:26:15;3.30;;;1.23;;
28904;SDS011;60848;53.884;11.446;2022-11-18T15:28:46;2.58;;;1.58;;
28904;SDS011;60848;53.884;11.446;2022-11-18T15:31:14;6.53;;;1.33;;
28904;SDS011;60848;53.884;11.446;2022-11-18T15:33:44;2.22;;;1.15;;
28904;SDS011;60848;53.884;11.446;2022-11-18T15:36:16;2.22;;;1.10;;
28904;SDS011;60848;53.884;11.446;2022-11-18T15:38:46;2.53;;;1.30;;
28904;SDS011;60848;53.884;11.446;2022-11-18T15:43:44;2.50;;;1.25;;
28904;SDS011;60848;53.884;11.446;2022-11-18T15:46:13;2.33;;;0.98;;
28904;SDS011;60848;53.884;11.446;2022-11-18T15:48:42;2.75;;;1.20;;
28904;SDS011;60848;53.884;11.446;2022-11-18T15:51:12;2.60;;;1.38;;
28904;SDS011;60848;53.884;11.446;2022-11-18T15:53:40;2.95;;;1.42;;
28904;SDS011;60848;53.884;11.446;2022-11-18T15:56:12;2.97;;;1.40;;
28904;SDS011;60848;53.884;11.446;2022-11-18T15:58:41;3.08;;;1.58;;
28904;SDS011;60848;53.884;11.446;2022-11-18T16:01:10;2.17;;;1.15;;
28904;SDS011;60848;53.884;11.446;2022-11-18T16:03:38;2.13;;;1.30;;
28904;SDS011;60848;53.884;11.446;2022-11-18T16:06:07;4.80;;;1.60;;
28904;SDS011;60848;53.884;11.446;2022-11-18T16:08:36;3.60;;;1.98;;
28904;SDS011;60848;53.884;11.446;2022-11-18T16:11:05;3.00;;;1.88;;
28904;SDS011;60848;53.884;11.446;2022-11-18T16:13:58;4.30;;;1.85;;
28904;SDS011;60848;53.884;11.446;2022-11-18T16:16:28;4.40;;;1.92;;
28904;SDS011;60848;53.884;11.446;2022-11-18T16:18:57;4.18;;;2.00;;
28904;SDS011;60848;53.884;11.446;2022-11-18T16:21:27;5.03;;;2.60;;
28904;SDS011;60848;53.884;11.446;2022-11-18T16:23:58;3.28;;;1.50;;
28904;SDS011;60848;53.884;11.446;2022-11-18T16:28:57;3.28;;;1.70;;
28904;SDS011;60848;53.884;11.446;2022-11-18T16:31:26;4.32;;;1.80;;
28904;SDS011;60848;53.884;11.446;2022-11-18T16:34:07;3.35;;;2.05;;
28904;SDS011;60848;53.884;11.446;2022-11-18T16:36:36;3.55;;;2.17;;
28904;SDS011;60848;53.884;11.446;2022-11-18T16:39:07;4.20;;;2.47;;
28904;SDS011;60848;53.884;11.446;2022-11-18T16:41:37;4.53;;;2.72;;
28904;SDS011;60848;53.884;11.446;2022-11-18T16:44:06;10.60;;;4.65;;
28904;SDS011;60848;53.884;11.446;2022-11-18T16:46:36;8.57;;;4.85;;
28904;SDS011;60848;53.884;11.446;2022-11-18T16:49:06;7.88;;;4.05;;
28904;SDS011;60848;53.884;11.446;2022-11-18T16:51:38;7.28;;;4.32;;
28904;SDS011;60848;53.884;11.446;2022-11-18T16:54:15;6.07;;;2.95;;
28904;SDS011;60848;53.884;11.446;2022-11-18T16:56:44;7.05;;;4.00;;
28904;SDS011;60848;53.884;11.446;2022-11-18T16:59:14;7.43;;;4.18;;
28904;SDS011;60848;53.884;11.446;2022-11-18T17:01:44;5.82;;;3.50;;
28904;SDS011;60848;53.884;11.446;2022-11-18T17:04:12;11.82;;;5.82;;
28904;SDS011;60848;53.884;11.446;2022-11-18T17:06:41;7.13;;;4.18;;
28904;SDS011;60848;53.884;11.446;2022-11-18T17:09:12;7.25;;;4.28;;
28904;SDS011;60848;53.884;11.446;2022-11-18T17:11:43;9.10;;;4.35;;
28904;SDS011;60848;53.884;11.446;2022-11-18T17:14:14;10.10;;;5.35;;